createdAt,value
2019-04-06T00:15:54.030Z,93999.71
2019-04-06T00:30:56.316Z,93995.55
2019-04-06T00:45:54.409Z,93999.95
2019-04-06T01:00:59.730Z,93987.66
2019-04-06T01:15:53.983Z,93982.86
2019-04-06T01:30:50.926Z,93994.59
2019-04-06T01:45:51.541Z,93992.72
2019-04-06T02:16:00.264Z,93974.64
2019-04-06T02:45:51.351Z,93961.22
2019-04-06T03:00:52.052Z,93977.36
2019-04-06T03:15:50.683Z,93974.16
2019-04-06T03:45:54.182Z,93990.23
2019-04-06T04:00:51.199Z,94002.78
2019-04-06T04:15:50.600Z,94011.44
2019-04-06T04:30:51.392Z,94025.55
2019-04-06T04:45:51.366Z,94035.93
2019-04-06T05:00:51.384Z,94052.20
2019-04-06T05:30:56.674Z,94045.38
2019-04-06T05:45:52.623Z,94051.83
2019-04-06T06:00:52.981Z,94045.94
2019-04-06T06:15:50.875Z,94045.52
2019-04-06T06:30:50.933Z,94043.42
2019-04-06T06:45:50.816Z,94058.28
2019-04-06T07:00:51.690Z,94053.27
2019-04-06T07:15:51.179Z,94046.86
2019-04-06T07:30:51.247Z,94052.92
2019-04-06T07:45:50.731Z,94048.91
2019-04-06T08:00:54.554Z,94047.89
2019-04-06T08:15:54.405Z,94052.74
2019-04-06T08:30:51.332Z,94032.98
2019-04-06T08:45:51.307Z,94039.22
2019-04-06T09:00:51.281Z,94025.22
2019-04-06T09:15:51.192Z,94026.97
2019-04-06T09:30:51.054Z,94022.86
2019-04-06T09:45:52.768Z,94031.09
2019-04-06T10:00:58.838Z,94020.68
2019-04-06T11:00:58.446Z,93947.08
2019-04-06T11:15:58.462Z,93941.10
2019-04-06T11:30:55.612Z,93938.78
2019-04-06T11:46:00.399Z,93906.50
2019-04-06T12:15:55.556Z,93886.95
2019-04-06T13:31:03.729Z,93817.47
2019-04-06T14:00:52.661Z,93811.55
2019-04-06T14:45:52.294Z,93807.20
2019-04-06T15:30:52.921Z,93810.41
2019-04-06T15:45:55.320Z,93815.17
2019-04-06T16:45:52.745Z,93875.31
2019-04-06T17:00:57.146Z,93883.43
2019-04-06T17:30:54.758Z,93920.23
2019-04-06T17:45:53.174Z,93946.18
2019-04-06T18:00:53.081Z,93962.72
2019-04-06T18:15:57.296Z,93970.01
2019-04-06T18:30:52.334Z,93964.44
2019-04-06T18:45:50.617Z,93961.28
2019-04-06T19:00:50.769Z,93953.59
2019-04-06T19:15:51.426Z,93959.66
2019-04-06T19:30:50.992Z,93949.07
2019-04-06T19:45:51.261Z,93935.38
2019-04-06T20:00:50.796Z,93920.29
2019-04-06T20:15:50.778Z,93936.80
2019-04-06T20:30:58.025Z,93925.66
2019-04-06T20:45:51.029Z,93946.67
2019-04-06T21:00:50.605Z,93953.30
2019-04-06T21:15:51.639Z,93962.57
2019-04-06T21:30:51.484Z,93962.48
2019-04-06T21:45:51.138Z,93954.17
2019-04-06T22:00:53.580Z,93937.00
2019-04-06T22:15:50.794Z,93944.49
2019-04-06T22:30:54.141Z,93949.43
2019-04-06T22:45:50.688Z,93938.75
2019-04-06T23:15:50.901Z,93926.66
2019-04-06T23:30:50.434Z,93926.13
2019-04-06T23:45:57.117Z,93911.82
